Skip to main content

NOAA/GLERL Met Station at Chicago, IL

Previous 5 days (top of hour only)
See also Previous 3 Hours (2 minute increments)
Jump down to Data
Switch to [English][Metric]
Zoom: Click and drag, Pan: shift-click and drag, Unzoom: double-click, Unzoom All




Note: Speed = mean wind during 2-minute period at top of hour,
Gust = max wind during 2-minute period at top of hour,
Peak = max wind during entire hour.
• See also 5-day windrose plot


NOAA/GLERL Met Station at Chicago, IL

Previous 5 days (top of hour only)
See also Previous 3 Hours (2 minute increments)
Jump up to Graphs
Switch to [English][Metric]
                  Wind  Wind  Wind   Air   Dew   Rel
                   Spd   Gst   Dir  Temp    Pt   Hum
YYYY-MM-DD   CDT   kts   kts   deg     F     F     %
2018-09-26 04:00  20.0  22.6   324  58.3  50.1  74.0
2018-09-26 03:00  20.8  22.9   309  60.3  50.7  70.4
2018-09-26 02:00  21.8  23.3   298  61.7  54.3  76.4
2018-09-26 01:00  22.2  26.4   319  64.2  58.2  80.6
2018-09-26 00:00  19.2  21.8   299  65.5  58.3  77.4
2018-09-25 23:00  15.9  18.7   305  66.9  61.7  83.0
2018-09-25 22:00  16.5  20.4   296  68.5  65.1  88.7
2018-09-25 21:00  21.2  23.3   277  68.5  64.8  87.6
2018-09-25 20:00  17.9  19.8   263  69.1  64.8  86.1
2018-09-25 19:00  15.4  18.9   234  70.9  63.0  75.7
2018-09-25 18:00  27.4  33.2   279  72.5  61.7  68.3
2018-09-25 17:00  15.2  18.1   216  82.2  61.1  48.2
2018-09-25 16:00  19.8  24.1   236  81.9  62.2  50.8
2018-09-25 15:00  16.7  17.9   186  78.1  67.8  70.3
2018-09-25 14:00  11.9  14.6   184  77.4  67.7  71.8
2018-09-25 13:00  10.3  10.9   187  74.8  67.3  76.9
2018-09-25 12:00  11.3  14.0   162  73.2  68.8  85.7
2018-09-25 11:00  11.5  12.2   172  71.8  68.7  89.7
2018-09-25 10:00   8.2   8.9   253  72.0  68.2  87.9
2018-09-25 09:00  10.7  11.1   208  70.9  69.0  93.6
2018-09-25 08:00   8.6  10.1   254  71.4  68.5  90.5
2018-09-25 07:00   8.6   9.1   190  69.6  69.2  98.6
2018-09-25 06:00   8.2   8.6   191  69.6  68.9  97.5
2018-09-25 05:00   8.2   8.9   176  69.6  68.6  96.6
2018-09-25 04:00   8.0   8.9   184  70.3  68.3  93.1
2018-09-25 03:00  10.7  11.1   197  70.3  68.4  93.4
2018-09-25 02:00  11.1  12.2   189  70.2  68.5  94.3
2018-09-25 01:00   6.4   6.8   183  70.0  68.7  95.6
2018-09-25 00:00   9.5   9.9   188  70.0  68.4  94.5
2018-09-24 23:00   8.7   9.5   171  69.8  68.1  94.2
2018-09-24 22:00  10.1  10.9   174  70.0  67.8  92.6
2018-09-24 21:00  12.2  13.0   136  70.5  67.3  89.3
2018-09-24 20:00  10.5  11.5   111  70.0  66.7  89.2
2018-09-24 19:00   7.6   8.0   125  69.6  66.8  90.6
2018-09-24 18:00   2.5   3.3   152  68.9  65.9  90.0
2018-09-24 17:00   0.8   1.6   178  68.5  65.9  91.2
2018-09-24 16:00   4.3   5.8   100  67.6  65.8  93.8
2018-09-24 15:00   7.8   8.9    90  66.9  64.9  93.0
2018-09-24 14:00  11.3  12.1   108  67.1  63.3  87.3
2018-09-24 13:00  10.1  11.3   111  66.4  62.9  88.4
2018-09-24 12:00  11.5  13.2   114  65.8  62.5  88.8
2018-09-24 11:00  13.4  14.4   133  65.1  61.4  87.7
2018-09-24 10:00   8.6  10.3   134  65.3  60.2  83.4
2018-09-24 09:00  13.6  15.4   142  63.7  59.2  85.1
2018-09-24 08:00  16.3  17.7   134  64.8  59.2  81.8
2018-09-24 07:00  16.3  19.1   134  64.2  58.2  80.5
2018-09-24 06:00  17.9  20.0   138  63.7  56.6  77.5
2018-09-24 05:00  15.9  18.3   139  63.7  57.3  79.6
2018-09-24 04:00  19.1  20.6   137  63.9  57.0  78.2
2018-09-24 03:00  22.6  25.3   133  64.4  57.5  77.9
2018-09-24 02:00  21.8  24.1   133  65.1  57.1  74.9
2018-09-24 01:00  24.7  26.0   125  65.8  57.1  73.0
2018-09-24 00:00  21.6  23.7   116  67.8  58.2  70.9
2018-09-23 23:00  17.1  18.7    99  68.4  60.5  75.6
2018-09-23 22:00  17.1  18.9    92  67.6  59.2  73.9
2018-09-23 21:00  17.5  19.4    67  66.9  59.4  76.5
2018-09-23 20:00  16.5  17.3    66  66.6  58.2  74.2
2018-09-23 19:00  12.2  13.8    58  65.8  57.6  74.4
2018-09-23 18:00  11.7  12.8    46  65.5  56.5  72.5
2018-09-23 17:00  10.5  11.3    37  64.9  56.0  72.5
2018-09-23 16:00   8.6   9.7    44  64.0  54.6  71.0
2018-09-23 15:00   8.6  10.7    64  63.5  54.1  71.1
2018-09-23 14:00   9.1  11.3    70  63.0  52.8  69.2
2018-09-23 13:00   9.7  14.2    73  63.1  53.4  70.3
2018-09-23 12:00   7.2   8.4    80  62.8  52.8  69.5
2018-09-23 11:00   7.0   8.0   128  63.0  54.5  73.5
2018-09-23 10:00   5.8   6.8   133  62.8  53.6  71.7
2018-09-23 09:00   7.0  10.5   157  61.5  54.7  78.0
2018-09-23 08:00   6.0   7.8   173  61.3  55.7  81.4
2018-09-23 07:00   6.6   7.8   204  59.7  54.0  81.2
2018-09-23 06:00   6.0   8.2   159  60.6  53.0  75.8
2018-09-23 05:00   5.6  10.1   156  60.8  52.9  74.8
2018-09-23 04:00   7.2  10.5   160  61.3  52.1  71.2
2018-09-23 03:00   7.8   9.7   180  61.5  53.4  74.3
2018-09-23 02:00   7.8  10.1   167  62.1  49.6  63.4
2018-09-23 01:00   7.8  10.3   156  62.4  50.2  63.9
2018-09-23 00:00   9.7  14.2   152  62.6  51.0  65.5
2018-09-22 23:00  12.1  13.6   131  62.6  51.6  66.9
2018-09-22 22:00  10.5  14.4   126  62.6  51.0  65.5
2018-09-22 21:00  10.7  11.5   121  62.2  49.6  62.8
2018-09-22 20:00   6.2   8.7   113  61.7  49.4  63.6
2018-09-22 19:00   5.1   6.2    86  61.2  48.9  63.6
2018-09-22 18:00   4.5   6.4    50  60.8  48.6  63.7
2018-09-22 17:00   6.2   7.0    39  59.9  47.8  63.9
2018-09-22 16:00   7.8   9.7    62  58.6  47.6  66.5
2018-09-22 15:00   7.8   9.1    43  57.7  47.1  67.4
2018-09-22 14:00   7.6  11.3    80  57.2  46.5  67.1
2018-09-22 13:00  10.7  13.2    86  56.5  46.1  67.8
2018-09-22 12:00  12.4  14.4    86  56.3  43.7  62.4
2018-09-22 11:00  16.1  17.5    77  56.7  44.3  62.9
2018-09-22 10:00  16.7  18.7    61  56.5  45.6  66.5
2018-09-22 09:00  17.9  22.6    75  56.8  45.4  65.2
2018-09-22 08:00  22.4  25.7    67  58.5  46.1  63.2
2018-09-22 07:00  20.6  22.7    57  58.6  43.9  57.6
2018-09-22 06:00  23.1  26.8    50  59.7  45.7  59.5
2018-09-22 05:00  22.9  25.1    62  60.4  48.7  64.9
2018-09-22 04:00  20.0  23.1    30  61.5  49.4  64.1
2018-09-22 03:00  20.8  23.1    30  61.0  48.2  62.5
2018-09-22 02:00  20.4  22.2    28  60.6  46.4  59.0
2018-09-22 01:00  22.2  26.8    11  60.8  49.8  66.7
2018-09-22 00:00  18.3  21.6     4  61.0  46.6  58.7
2018-09-21 23:00  20.8  23.9   344  60.8  48.4  63.2
2018-09-21 22:00  22.0  25.1   338  61.3  47.8  60.8
2018-09-21 21:00  18.3  21.8   323  62.8  48.4  59.0
2018-09-21 20:00  23.1  25.5   324  64.0  47.8  55.2
2018-09-21 19:00  24.3  26.8   335  66.0  52.6  61.6